Pagrindinis puslapis
METAR-TAF:

METAR-TAF

Oro uostai :

Nome, Aliaska, Jungtinės Amerikos Valstijos

platuma: 64-30-43N, ilguma: 165-26-42W, Aukštis: 11 m

Dabartinis oras

Ataskaita buvo paskelbta 21 minutes, ne 06:53 UTC
Ramus vėjas
Temperatūra -26°C
Drėgmė 83%
Slėgis 1016 hPa
Matomumas: 16.1 km
Giedras dangus

METAR: PAOM 280653Z 00000KT 10SM CLR M26/M28 A3001 RMK AO2 SLP163 T12611278

Laikas: 22:14 (07:14 UTC)

Prognozė

Ataskaita buvo paskelbta 1 valandą ir 47 minutes, ne 05:27 UTC
Prognozė galioja nuo 28 metu 06 UTC su 29 metu 06 UTC
Vėjas 3 kt nuo kintamojo kryptimis
Matomumas: 10 km
Giedras dangus

TAF: PAOM 280527Z 2806/2906 VRB03KT P6SM SKC

Orai ataskaitas ir orų prognozės (METAR, TAF).

turimą stotys yra geltonos ir raudonos taškus žemėlapyje.

Perkelti pele per norėdami pamatyti stoties vardą.

Tada spustelėkite, norėdami matyti oro stebėjimo ir prognozės.

Norėdami pakeisti žemėlapį: spustelėkite ant žalios mygtukų su juodo kryžiaus žemyn,; žalią mygtuką su brūkšneliu, jei norite nutolinti; arba žalių rodyklių gretimoms žemėlapius.


METAR-TAF: